createdAt,value
2018-12-02T00:00:40.634Z,9.99
2018-12-02T00:01:49.548Z,10
2018-12-02T00:02:58.234Z,10.02
2018-12-02T00:04:06.897Z,10.02
2018-12-02T00:05:15.574Z,10.05
2018-12-02T00:06:24.249Z,10.02
2018-12-02T00:07:33.182Z,10.05
2018-12-02T00:08:41.847Z,9.99
2018-12-02T00:09:50.511Z,10.06
2018-12-02T00:10:59.185Z,9.94
2018-12-02T00:12:07.853Z,10.1
2018-12-02T00:13:16.539Z,9.99
2018-12-02T00:14:25.206Z,9.94
2018-12-02T00:15:33.879Z,9.99
2018-12-02T00:16:42.542Z,10.02
2018-12-02T00:17:51.216Z,9.95
2018-12-02T00:18:59.895Z,10
2018-12-02T00:20:08.573Z,10.03
2018-12-02T00:21:17.262Z,10.02
2018-12-02T00:22:25.924Z,10.05
2018-12-02T00:23:34.597Z,10.03
2018-12-02T00:24:43.268Z,10.06
2018-12-02T00:25:52.209Z,10.05
2018-12-02T00:27:00.875Z,10
2018-12-02T00:28:09.541Z,10.06
2018-12-02T00:29:18.209Z,10.09
2018-12-02T00:30:26.876Z,9.97
2018-12-02T00:31:35.556Z,10.07
2018-12-02T00:32:44.222Z,10.07
2018-12-02T00:33:52.894Z,9.94
2018-12-02T00:35:01.550Z,10.07
2018-12-02T00:36:10.231Z,10.09
2018-12-02T00:37:19.412Z,10.09
2018-12-02T00:38:28.087Z,10.1
2018-12-02T00:39:36.763Z,10.15
2018-12-02T00:40:45.441Z,10.09
2018-12-02T00:41:54.362Z,10.12
2018-12-02T00:43:03.039Z,10.09
2018-12-02T00:44:11.701Z,10.17
2018-12-02T00:45:20.382Z,10.06
2018-12-02T00:46:29.061Z,10.23
2018-12-02T00:47:37.737Z,10.15
2018-12-02T00:48:46.415Z,10.23
2018-12-02T00:49:55.075Z,10.17
2018-12-02T00:51:03.748Z,10.18
2018-12-02T00:52:12.422Z,10.2
2018-12-02T00:53:21.100Z,10.24
2018-12-02T00:54:29.757Z,10.17
2018-12-02T00:55:38.436Z,10.18
2018-12-02T00:56:47.110Z,10.2
2018-12-02T00:57:55.791Z,10.18
2018-12-02T00:59:04.468Z,10.2
2018-12-02T01:00:13.140Z,10.18
2018-12-02T01:01:21.828Z,10.17
2018-12-02T01:02:30.513Z,10.2
2018-12-02T01:03:39.442Z,10.28
2018-12-02T01:04:48.109Z,10.23
2018-12-02T01:05:56.779Z,10.23
2018-12-02T01:07:05.461Z,10.33
2018-12-02T01:08:14.393Z,10.27
2018-12-02T01:09:23.060Z,10.27
2018-12-02T01:10:31.736Z,10.3
2018-12-02T01:11:40.401Z,10.3
2018-12-02T01:12:49.077Z,10.41
2018-12-02T01:13:57.739Z,10.31
2018-12-02T01:15:06.666Z,10.33
2018-12-02T01:16:15.333Z,10.34
2018-12-02T01:17:24.004Z,10.36
2018-12-02T01:18:32.670Z,10.31
2018-12-02T01:19:41.343Z,10.34
2018-12-02T01:20:50.020Z,10.31
2018-12-02T01:21:58.694Z,10.34
2018-12-02T01:23:07.361Z,10.33
2018-12-02T01:24:16.034Z,10.34
2018-12-02T01:25:24.780Z,10.33
2018-12-02T01:26:33.442Z,10.38
2018-12-02T01:27:42.112Z,10.36
2018-12-02T01:28:51.112Z,10.36
2018-12-02T01:30:00.215Z,10.39
2018-12-02T01:31:09.137Z,10.34
2018-12-02T01:32:18.287Z,10.3
2018-12-02T01:33:27.140Z,10.39
2018-12-02T01:34:35.841Z,10.38
2018-12-02T01:35:44.510Z,10.34
2018-12-02T01:36:53.432Z,10.34
2018-12-02T01:38:03.193Z,10.33
2018-12-02T01:39:11.867Z,10.38
2018-12-02T01:40:20.587Z,10.41
2018-12-02T01:41:29.516Z,10.36
2018-12-02T01:42:38.189Z,10.38
2018-12-02T01:43:47.106Z,10.31
2018-12-02T01:44:55.779Z,10.34
2018-12-02T01:46:04.719Z,10.38
2018-12-02T01:47:13.391Z,10.33
2018-12-02T01:48:22.054Z,10.31
2018-12-02T01:49:31.044Z,10.34
2018-12-02T01:50:39.718Z,10.38
2018-12-02T01:51:48.395Z,10.43
2018-12-02T01:52:57.315Z,10.42
2018-12-02T01:54:06.245Z,10.39
2018-12-02T01:55:14.919Z,10.42
2018-12-02T01:56:23.593Z,10.36
2018-12-02T01:57:32.261Z,10.42
2018-12-02T01:58:40.932Z,10.42
2018-12-02T01:59:49.608Z,10.45
2018-12-02T02:00:58.539Z,10.43
2018-12-02T02:02:07.217Z,10.42
2018-12-02T02:03:15.883Z,10.42
2018-12-02T02:04:24.566Z,10.46
2018-12-02T02:05:33.237Z,10.38
2018-12-02T02:06:41.912Z,10.43
2018-12-02T02:07:50.835Z,10.51
2018-12-02T02:08:59.758Z,10.46
2018-12-02T02:10:08.423Z,10.45
2018-12-02T02:11:17.099Z,10.53
2018-12-02T02:12:26.032Z,10.45
2018-12-02T02:13:34.707Z,10.48
2018-12-02T02:14:43.373Z,10.45
2018-12-02T02:15:52.054Z,10.48
2018-12-02T02:17:00.727Z,10.53
2018-12-02T02:18:09.439Z,10.48
2018-12-02T02:19:18.125Z,10.55
2018-12-02T02:20:26.794Z,10.51
2018-12-02T02:21:35.472Z,10.45
2018-12-02T02:22:44.139Z,10.55
2018-12-02T02:23:54.121Z,10.51
2018-12-02T02:25:02.785Z,10.42
2018-12-02T02:26:11.469Z,10.45
2018-12-02T02:27:20.134Z,10.49
2018-12-02T02:28:28.821Z,10.57
2018-12-02T02:29:37.740Z,10.51
2018-12-02T02:30:46.420Z,10.51
2018-12-02T02:31:55.092Z,10.49
2018-12-02T02:33:04.024Z,10.46
2018-12-02T02:34:12.951Z,10.48
2018-12-02T02:35:21.638Z,10.51
2018-12-02T02:36:30.348Z,10.43
2018-12-02T02:37:39.038Z,10.45
2018-12-02T02:38:47.716Z,10.43
2018-12-02T02:39:56.886Z,10.46
2018-12-02T02:41:05.565Z,10.49
2018-12-02T02:42:14.492Z,10.46
2018-12-02T02:43:23.197Z,10.49
2018-12-02T02:44:31.865Z,10.49
2018-12-02T02:45:40.544Z,10.48
2018-12-02T02:46:49.208Z,10.59
2018-12-02T02:47:58.152Z,10.49
2018-12-02T02:49:06.816Z,10.46
2018-12-02T02:50:15.496Z,10.53
2018-12-02T02:51:24.169Z,10.53
2018-12-02T02:52:32.856Z,10.45
2018-12-02T02:53:41.533Z,10.57
2018-12-02T02:54:50.459Z,10.48
2018-12-02T02:55:59.144Z,10.51
2018-12-02T02:57:08.086Z,10.53
2018-12-02T02:58:16.770Z,10.46
2018-12-02T02:59:25.448Z,10.53
2018-12-02T03:00:34.124Z,10.58
2018-12-02T03:01:42.790Z,10.46
2018-12-02T03:02:51.469Z,10.53
2018-12-02T03:04:00.171Z,10.49
2018-12-02T03:05:08.877Z,10.49
2018-12-02T03:06:17.552Z,10.53
2018-12-02T03:07:26.253Z,10.58
2018-12-02T03:08:35.452Z,10.58
2018-12-02T03:09:44.388Z,10.61
2018-12-02T03:10:53.052Z,10.58
2018-12-02T03:12:01.979Z,10.59
2018-12-02T03:13:10.654Z,10.61
2018-12-02T03:14:19.587Z,10.64
2018-12-02T03:15:28.274Z,10.58
2018-12-02T03:16:37.203Z,10.62
2018-12-02T03:17:45.880Z,10.61
2018-12-02T03:18:55.107Z,10.61
2018-12-02T03:20:04.049Z,10.65
2018-12-02T03:21:12.981Z,10.59
2018-12-02T03:22:21.655Z,10.62
2018-12-02T03:23:30.343Z,10.65
2018-12-02T03:24:39.023Z,10.58
2018-12-02T03:25:47.694Z,10.67
2018-12-02T03:26:56.373Z,10.69
2018-12-02T03:28:05.050Z,10.68
2018-12-02T03:29:13.760Z,10.67
2018-12-02T03:30:22.556Z,10.68
2018-12-02T03:31:31.278Z,10.68
2018-12-02T03:32:40.500Z,10.75
2018-12-02T03:33:49.716Z,10.67
2018-12-02T03:34:58.658Z,10.76
2018-12-02T03:36:07.334Z,10.67
2018-12-02T03:37:16.262Z,10.67
2018-12-02T03:38:25.238Z,10.72
2018-12-02T03:39:33.918Z,10.68
2018-12-02T03:40:42.594Z,10.71
2018-12-02T03:41:51.272Z,10.67
2018-12-02T03:42:59.975Z,10.67
2018-12-02T03:44:08.658Z,10.59
2018-12-02T03:45:17.325Z,10.62
2018-12-02T03:46:26.009Z,10.61
2018-12-02T03:47:34.700Z,10.61
2018-12-02T03:48:43.385Z,10.68
2018-12-02T03:49:52.330Z,10.58
2018-12-02T03:51:01.013Z,10.61
2018-12-02T03:52:09.943Z,10.55
2018-12-02T03:53:18.607Z,10.45
2018-12-02T03:54:27.278Z,10.45
2018-12-02T03:55:35.949Z,10.42
2018-12-02T03:56:44.628Z,10.45
2018-12-02T03:57:53.302Z,10.38
2018-12-02T03:59:02.241Z,10.38
2018-12-02T04:00:10.924Z,10.31
2018-12-02T04:01:19.613Z,10.31
2018-12-02T04:02:28.278Z,10.25
2018-12-02T04:03:36.959Z,10.18
2018-12-02T04:04:45.640Z,10.2
2018-12-02T04:05:54.376Z,10.23
2018-12-02T04:07:03.314Z,10.17
2018-12-02T04:08:11.990Z,10.06
2018-12-02T04:09:20.658Z,10.1
2018-12-02T04:10:29.336Z,10.09
2018-12-02T04:11:38.017Z,10
2018-12-02T04:12:46.989Z,10.07
2018-12-02T04:13:55.926Z,10.02
2018-12-02T04:15:04.602Z,9.97
2018-12-02T04:16:13.279Z,9.92
2018-12-02T04:17:21.950Z,9.9
2018-12-02T04:18:30.624Z,9.99
2018-12-02T04:19:39.305Z,9.95
2018-12-02T04:20:47.972Z,10.03
2018-12-02T04:21:56.656Z,10.02
2018-12-02T04:23:05.574Z,10.02
2018-12-02T04:24:14.505Z,10.02
2018-12-02T04:25:23.446Z,10
2018-12-02T04:26:32.646Z,9.92
2018-12-02T04:27:41.582Z,10
2018-12-02T04:28:50.253Z,9.99
2018-12-02T04:29:58.936Z,9.88
2018-12-02T04:31:08.118Z,9.88
2018-12-02T04:32:16.803Z,10
2018-12-02T04:33:25.738Z,9.94
2018-12-02T04:34:34.418Z,9.88
2018-12-02T04:35:43.095Z,9.9
2018-12-02T04:36:51.792Z,9.94
2018-12-02T04:38:00.466Z,9.88
2018-12-02T04:39:09.143Z,9.87
2018-12-02T04:40:17.817Z,9.88
2018-12-02T04:41:26.493Z,9.91
2018-12-02T04:42:35.177Z,9.84
2018-12-02T04:43:44.132Z,9.88
2018-12-02T04:44:52.826Z,9.88
2018-12-02T04:46:01.771Z,9.87
2018-12-02T04:47:10.449Z,9.87
2018-12-02T04:48:19.124Z,9.82
2018-12-02T04:49:27.796Z,9.84
2018-12-02T04:50:36.466Z,9.84
2018-12-02T04:51:45.148Z,9.87
2018-12-02T04:52:53.819Z,9.84
2018-12-02T04:54:02.498Z,9.84
2018-12-02T04:55:11.179Z,9.85
2018-12-02T04:56:20.117Z,9.87
2018-12-02T04:57:29.038Z,9.87
2018-12-02T04:58:37.719Z,9.85
2018-12-02T04:59:47.336Z,9.81
2018-12-02T05:00:56.106Z,9.81
2018-12-02T05:02:04.784Z,9.81
2018-12-02T05:03:13.449Z,9.82
2018-12-02T05:04:22.125Z,9.84
2018-12-02T05:05:30.802Z,9.88
2018-12-02T05:06:39.480Z,9.88
2018-12-02T05:07:48.451Z,9.82
2018-12-02T05:08:57.161Z,9.84
2018-12-02T05:10:05.863Z,9.88
2018-12-02T05:11:14.554Z,9.88
2018-12-02T05:12:23.477Z,9.82
2018-12-02T05:13:32.178Z,9.84
2018-12-02T05:14:40.837Z,9.88
2018-12-02T05:15:49.518Z,9.88
2018-12-02T05:16:58.701Z,9.85
2018-12-02T05:18:07.380Z,9.85
2018-12-02T05:19:16.297Z,9.87
2018-12-02T05:20:24.977Z,9.85
2018-12-02T05:21:33.653Z,9.84
2018-12-02T05:22:42.330Z,9.85
2018-12-02T05:23:51.257Z,9.84
2018-12-02T05:24:59.918Z,9.85
2018-12-02T05:26:08.592Z,9.85
2018-12-02T05:27:17.260Z,9.87
2018-12-02T05:28:25.950Z,9.8
2018-12-02T05:29:34.621Z,9.85
2018-12-02T05:30:43.311Z,9.81
2018-12-02T05:31:51.992Z,9.77
2018-12-02T05:33:00.677Z,9.84
2018-12-02T05:34:09.343Z,9.77
2018-12-02T05:35:18.279Z,9.85
2018-12-02T05:36:26.953Z,9.85
2018-12-02T05:37:35.634Z,9.82
2018-12-02T05:38:44.311Z,9.88
2018-12-02T05:39:52.976Z,9.81
2018-12-02T05:41:01.644Z,9.85
2018-12-02T05:42:10.573Z,9.82
2018-12-02T05:43:19.250Z,9.81
2018-12-02T05:44:27.914Z,9.87
2018-12-02T05:45:36.588Z,9.85
2018-12-02T05:46:45.255Z,9.81
2018-12-02T05:47:53.935Z,9.74
2018-12-02T05:49:02.599Z,9.82
2018-12-02T05:50:11.527Z,9.88
2018-12-02T05:51:20.187Z,9.82
2018-12-02T05:52:28.869Z,9.84
2018-12-02T05:53:37.534Z,9.76
2018-12-02T05:54:46.208Z,9.82
2018-12-02T05:55:54.869Z,9.8
2018-12-02T05:57:03.591Z,9.87
2018-12-02T05:58:12.266Z,9.81
2018-12-02T05:59:20.941Z,9.8
2018-12-02T06:00:29.613Z,9.87
2018-12-02T06:01:38.275Z,9.81
2018-12-02T06:02:46.957Z,9.85
2018-12-02T06:03:55.622Z,9.76
2018-12-02T06:05:04.554Z,9.8
2018-12-02T06:06:13.219Z,9.81
2018-12-02T06:07:21.896Z,9.77
2018-12-02T06:08:30.559Z,9.81
2018-12-02T06:09:39.237Z,9.87
2018-12-02T06:10:48.162Z,9.85
2018-12-02T06:11:56.835Z,9.84
2018-12-02T06:13:05.501Z,9.84
2018-12-02T06:14:14.179Z,9.85
2018-12-02T06:15:22.853Z,9.87
2018-12-02T06:16:31.521Z,9.87
2018-12-02T06:17:40.197Z,9.81
2018-12-02T06:18:48.862Z,9.81
2018-12-02T06:19:57.545Z,9.84
2018-12-02T06:21:11.400Z,9.82
2018-12-02T06:22:20.340Z,9.87
2018-12-02T06:23:28.999Z,9.87
2018-12-02T06:24:37.733Z,9.85
2018-12-02T06:25:51.103Z,9.85
2018-12-02T06:26:59.791Z,9.84
2018-12-02T06:28:08.465Z,9.85
2018-12-02T06:29:17.149Z,9.8
2018-12-02T06:30:26.139Z,9.85
2018-12-02T06:31:34.812Z,9.82
2018-12-02T06:32:43.488Z,9.85
2018-12-02T06:33:52.163Z,9.82
2018-12-02T06:35:00.844Z,9.85
2018-12-02T06:36:09.774Z,9.84
2018-12-02T06:37:18.448Z,9.87
2018-12-02T06:38:27.121Z,9.85
2018-12-02T06:39:35.804Z,9.85
2018-12-02T06:40:44.472Z,9.95
2018-12-02T06:41:53.150Z,9.87
2018-12-02T06:43:01.824Z,9.88
2018-12-02T06:44:10.497Z,9.87
2018-12-02T06:45:19.167Z,9.87
2018-12-02T06:46:27.842Z,9.88
2018-12-02T06:47:36.504Z,9.87
2018-12-02T06:48:45.430Z,9.85
2018-12-02T06:49:54.099Z,9.87
2018-12-02T06:51:02.779Z,9.88
2018-12-02T06:52:11.440Z,9.87
2018-12-02T06:53:20.106Z,9.91
2018-12-02T06:54:28.791Z,9.88
2018-12-02T06:55:37.721Z,9.9
2018-12-02T06:56:46.404Z,9.9
2018-12-02T06:57:55.323Z,9.91
2018-12-02T06:59:03.999Z,9.88
2018-12-02T07:00:12.662Z,9.85
2018-12-02T07:01:21.351Z,9.88
2018-12-02T07:02:30.018Z,9.85
2018-12-02T07:03:38.697Z,9.92
2018-12-02T07:04:47.359Z,9.97
2018-12-02T07:05:56.036Z,10
2018-12-02T07:07:04.710Z,9.92
2018-12-02T07:08:13.638Z,9.97
2018-12-02T07:09:23.263Z,10.02
2018-12-02T07:10:31.947Z,9.95
2018-12-02T07:11:40.970Z,9.88
2018-12-02T07:12:49.713Z,9.97
2018-12-02T07:13:58.714Z,9.88
2018-12-02T07:15:08.185Z,9.87
2018-12-02T07:16:16.999Z,9.9
2018-12-02T07:17:25.671Z,9.94
2018-12-02T07:18:34.345Z,9.91
2018-12-02T07:19:43.305Z,9.88
2018-12-02T07:20:51.984Z,9.85
2018-12-02T07:22:01.013Z,9.92
2018-12-02T07:23:09.870Z,9.99
2018-12-02T07:24:18.577Z,9.91
2018-12-02T07:25:27.258Z,9.95
2018-12-02T07:26:35.926Z,9.95
2018-12-02T07:27:44.597Z,10.02
2018-12-02T07:28:53.272Z,10.02
2018-12-02T07:30:01.941Z,10.03
2018-12-02T07:31:10.610Z,10.05
2018-12-02T07:32:19.279Z,10
2018-12-02T07:33:27.955Z,9.99
2018-12-02T07:34:36.624Z,9.99
2018-12-02T07:35:45.347Z,10.02
2018-12-02T07:36:54.023Z,10.03
2018-12-02T07:38:02.700Z,9.99
2018-12-02T07:39:11.368Z,9.91
2018-12-02T07:40:20.050Z,10.03
2018-12-02T07:41:28.729Z,10
2018-12-02T07:42:37.403Z,9.97
2018-12-02T07:43:46.072Z,9.97
2018-12-02T07:44:54.750Z,10.02
2018-12-02T07:46:03.426Z,9.92
2018-12-02T07:47:12.101Z,9.97
2018-12-02T07:48:20.774Z,9.95
2018-12-02T07:49:29.453Z,10.02
2018-12-02T07:50:38.127Z,10.05
2018-12-02T07:51:46.843Z,10.03
2018-12-02T07:52:56.038Z,9.95
2018-12-02T07:54:04.714Z,10
2018-12-02T07:55:13.393Z,9.94
2018-12-02T07:56:22.312Z,10.05
2018-12-02T07:57:31.234Z,10.05
2018-12-02T07:58:39.902Z,10
2018-12-02T07:59:48.573Z,10.03
2018-12-02T08:00:57.235Z,9.97
2018-12-02T08:02:05.931Z,10.09
2018-12-02T08:03:14.606Z,10.05
2018-12-02T08:04:23.286Z,10.06
2018-12-02T08:05:31.968Z,10.09
2018-12-02T08:06:40.652Z,10.09
2018-12-02T08:07:49.323Z,10.06
2018-12-02T08:08:58.254Z,10.1
2018-12-02T08:10:06.931Z,10.1
2018-12-02T08:11:15.618Z,10.13
2018-12-02T08:12:24.294Z,10.06
2018-12-02T08:13:32.967Z,10.09
2018-12-02T08:14:41.636Z,10.1
2018-12-02T08:15:50.308Z,10.07
2018-12-02T08:16:58.984Z,10.09
2018-12-02T08:18:07.663Z,10.2
2018-12-02T08:19:16.330Z,10.2
2018-12-02T08:20:25.266Z,10.18
2018-12-02T08:21:33.940Z,10.23
2018-12-02T08:22:42.627Z,10.2
2018-12-02T08:23:55.986Z,10.21
2018-12-02T08:25:04.665Z,10.17
2018-12-02T08:26:13.338Z,10.23
2018-12-02T08:27:22.010Z,10.18
2018-12-02T08:28:30.945Z,10.18
2018-12-02T08:29:39.622Z,10.2
2018-12-02T08:30:48.548Z,10.17
2018-12-02T08:31:57.215Z,10.17
2018-12-02T08:33:05.893Z,10.13
2018-12-02T08:34:15.478Z,10.21
2018-12-02T08:35:24.415Z,10.23
2018-12-02T08:36:33.081Z,10.25
2018-12-02T08:37:41.758Z,10.3
2018-12-02T08:38:50.448Z,10.2
2018-12-02T08:39:59.375Z,10.33
2018-12-02T08:41:08.037Z,10.33
2018-12-02T08:42:16.713Z,10.36
2018-12-02T08:43:25.642Z,10.33
2018-12-02T08:44:34.317Z,10.38
2018-12-02T08:45:42.995Z,10.38
2018-12-02T08:46:51.671Z,10.43
2018-12-02T08:48:00.342Z,10.41
2018-12-02T08:49:09.280Z,10.43
2018-12-02T08:50:17.957Z,10.43
2018-12-02T08:51:26.646Z,10.43
2018-12-02T08:52:35.581Z,10.41
2018-12-02T08:53:44.259Z,10.45
2018-12-02T08:54:52.938Z,10.43
2018-12-02T08:56:01.625Z,10.43
2018-12-02T08:57:10.653Z,10.46
2018-12-02T08:58:19.340Z,10.43
2018-12-02T08:59:28.021Z,10.46
2018-12-02T09:00:36.962Z,10.45
2018-12-02T09:01:45.637Z,10.39
2018-12-02T09:02:54.313Z,10.46
2018-12-02T09:04:02.985Z,10.45
2018-12-02T09:05:11.671Z,10.45
2018-12-02T09:06:20.607Z,10.49
2018-12-02T09:07:29.282Z,10.57
2018-12-02T09:08:37.946Z,10.53
2018-12-02T09:09:46.628Z,10.49
2018-12-02T09:10:55.300Z,10.48
2018-12-02T09:12:03.985Z,10.53
2018-12-02T09:13:12.909Z,10.51
2018-12-02T09:14:21.595Z,10.57
2018-12-02T09:15:30.527Z,10.59
2018-12-02T09:16:39.205Z,10.59
2018-12-02T09:17:47.884Z,10.61
2018-12-02T09:18:56.563Z,10.57
2018-12-02T09:20:05.240Z,10.62
2018-12-02T09:21:13.916Z,10.58
2018-12-02T09:22:22.597Z,10.62
2018-12-02T09:23:31.278Z,10.65
2018-12-02T09:24:39.958Z,10.72
2018-12-02T09:25:48.627Z,10.76
2018-12-02T09:26:57.307Z,10.77
2018-12-02T09:28:05.971Z,10.79
2018-12-02T09:29:14.652Z,10.8
2018-12-02T09:30:23.356Z,10.72
2018-12-02T09:31:32.039Z,10.72
2018-12-02T09:32:40.706Z,10.76
2018-12-02T09:33:49.384Z,10.69
2018-12-02T09:34:58.059Z,10.65
2018-12-02T09:36:06.747Z,10.83
2018-12-02T09:37:15.418Z,10.75
2018-12-02T09:38:24.083Z,10.76
2018-12-02T09:39:32.752Z,10.68
2018-12-02T09:40:41.428Z,10.76
2018-12-02T09:41:50.108Z,10.72
2018-12-02T09:42:58.778Z,10.77
2018-12-02T09:44:07.709Z,10.75
2018-12-02T09:45:16.373Z,10.82
2018-12-02T09:46:25.068Z,10.68
2018-12-02T09:47:33.734Z,10.76
2018-12-02T09:48:42.421Z,10.77
2018-12-02T09:49:51.083Z,10.77
2018-12-02T09:50:59.772Z,10.79
2018-12-02T09:52:08.456Z,10.83
2018-12-02T09:53:17.136Z,10.82
2018-12-02T09:54:27.761Z,10.9
2018-12-02T09:55:36.432Z,10.86
2018-12-02T09:56:45.107Z,10.94
2018-12-02T09:57:54.042Z,10.9
2018-12-02T09:59:02.721Z,10.84
2018-12-02T10:00:11.389Z,10.92
2018-12-02T10:01:20.066Z,11
2018-12-02T10:02:28.732Z,11
2018-12-02T10:03:37.419Z,10.98
2018-12-02T10:04:46.104Z,10.9
2018-12-02T10:05:54.782Z,11
2018-12-02T10:07:03.452Z,11.01
2018-12-02T10:08:12.125Z,11.07
2018-12-02T10:09:20.791Z,11.04
2018-12-02T10:10:29.468Z,11.05
2018-12-02T10:11:38.136Z,11.02
2018-12-02T10:12:46.815Z,11.04
2018-12-02T10:13:55.498Z,11.1
2018-12-02T10:15:04.429Z,11.12
2018-12-02T10:16:18.131Z,11.08
2018-12-02T10:17:26.808Z,11.16
2018-12-02T10:18:35.489Z,11.22
2018-12-02T10:19:44.159Z,11.22
2018-12-02T10:20:52.837Z,11.26
2018-12-02T10:22:01.500Z,11.27
2018-12-02T10:23:10.180Z,11.22
2018-12-02T10:24:18.867Z,11.31
2018-12-02T10:25:27.542Z,11.26
2018-12-02T10:26:36.211Z,11.27
2018-12-02T10:27:44.887Z,11.26
2018-12-02T10:28:53.569Z,11.35
2018-12-02T10:30:02.501Z,11.4
2018-12-02T10:31:11.170Z,11.41
2018-12-02T10:32:19.843Z,11.34
2018-12-02T10:33:28.570Z,11.44
2018-12-02T10:34:37.245Z,11.53
2018-12-02T10:35:45.917Z,11.43
2018-12-02T10:36:54.586Z,11.52
2018-12-02T10:38:03.263Z,11.52
2018-12-02T10:39:11.939Z,11.53
2018-12-02T10:40:20.624Z,11.53
2018-12-02T10:41:29.301Z,11.56
2018-12-02T10:42:37.974Z,11.59
2018-12-02T10:43:46.652Z,11.59
2018-12-02T10:44:55.335Z,11.68
2018-12-02T10:46:04.008Z,11.68
2018-12-02T10:47:12.683Z,11.76
2018-12-02T10:48:21.359Z,11.78
2018-12-02T10:49:30.042Z,11.78
2018-12-02T10:50:38.714Z,11.8
2018-12-02T10:51:47.394Z,11.77
2018-12-02T10:52:56.071Z,11.74
2018-12-02T10:54:04.747Z,11.81
2018-12-02T10:55:13.686Z,11.78
2018-12-02T10:56:22.395Z,11.88
2018-12-02T10:57:31.071Z,11.77
2018-12-02T10:58:39.738Z,11.88
2018-12-02T10:59:48.419Z,11.85
2018-12-02T11:00:57.102Z,11.91
2018-12-02T11:02:05.782Z,11.88
2018-12-02T11:03:14.445Z,11.86
2018-12-02T11:04:23.134Z,11.88
2018-12-02T11:05:31.805Z,11.89
2018-12-02T11:06:40.725Z,11.91
2018-12-02T11:07:49.394Z,11.89
2018-12-02T11:08:58.075Z,11.95
2018-12-02T11:10:06.754Z,11.99
2018-12-02T11:11:15.430Z,12
2018-12-02T11:12:24.109Z,12
2018-12-02T11:13:32.774Z,12.05
2018-12-02T11:14:41.458Z,12.1
2018-12-02T11:15:50.133Z,12.18
2018-12-02T11:16:58.810Z,12.14
2018-12-02T11:18:07.949Z,12.15
2018-12-02T11:19:16.674Z,12.21
2018-12-02T11:20:25.346Z,12.17
2018-12-02T11:21:34.290Z,12.18
2018-12-02T11:22:43.205Z,12.12
2018-12-02T11:23:51.893Z,12.23
2018-12-02T11:25:00.563Z,12.15
2018-12-02T11:26:09.242Z,12.18
2018-12-02T11:27:17.907Z,12.15
2018-12-02T11:28:26.577Z,12.28
2018-12-02T11:29:35.250Z,12.15
2018-12-02T11:30:43.931Z,12.15
2018-12-02T11:31:52.622Z,12.14
2018-12-02T11:33:01.298Z,12.18
2018-12-02T11:34:09.978Z,12.15
2018-12-02T11:35:18.660Z,12.15
2018-12-02T11:36:27.344Z,12.2
2018-12-02T11:37:36.022Z,12.29
2018-12-02T11:38:44.714Z,12.32
2018-12-02T11:39:53.635Z,12.33
2018-12-02T11:41:02.578Z,12.28
2018-12-02T11:42:11.252Z,12.25
2018-12-02T11:43:19.926Z,12.26
2018-12-02T11:44:28.589Z,12.29
2018-12-02T11:45:37.531Z,12.35
2018-12-02T11:46:46.212Z,12.29
2018-12-02T11:47:54.902Z,12.26
2018-12-02T11:49:03.582Z,12.28
2018-12-02T11:50:12.246Z,12.28
2018-12-02T11:51:20.929Z,12.39
2018-12-02T11:52:29.600Z,12.39
2018-12-02T11:53:38.287Z,12.39
2018-12-02T11:54:46.949Z,12.4
2018-12-02T11:55:55.636Z,12.35
2018-12-02T11:57:04.306Z,12.37
2018-12-02T11:58:13.203Z,12.44
2018-12-02T11:59:21.898Z,12.43
2018-12-02T12:00:30.848Z,12.39
2018-12-02T12:01:39.529Z,12.37
2018-12-02T12:02:48.199Z,12.4
2018-12-02T12:03:56.891Z,12.47
2018-12-02T12:05:05.566Z,12.5
2018-12-02T12:06:14.251Z,12.4
2018-12-02T12:07:22.924Z,12.51
2018-12-02T12:08:31.582Z,12.37
2018-12-02T12:09:40.260Z,12.54
2018-12-02T12:10:48.937Z,12.5
2018-12-02T12:11:57.621Z,12.57
2018-12-02T12:13:06.287Z,12.54
2018-12-02T12:14:14.963Z,12.43
2018-12-02T12:15:23.883Z,12.4
2018-12-02T12:16:32.576Z,12.54
2018-12-02T12:17:41.246Z,12.47
2018-12-02T12:18:50.186Z,12.47
2018-12-02T12:19:58.859Z,12.44
2018-12-02T12:21:07.550Z,12.58
2018-12-02T12:22:16.222Z,12.53
2018-12-02T12:23:24.895Z,12.53
2018-12-02T12:24:33.573Z,12.51
2018-12-02T12:25:42.498Z,12.51
2018-12-02T12:26:51.184Z,12.53
2018-12-02T12:27:59.859Z,12.58
2018-12-02T12:29:08.537Z,12.57
2018-12-02T12:30:17.204Z,12.68
2018-12-02T12:31:25.888Z,12.65
2018-12-02T12:32:34.561Z,12.7
2018-12-02T12:33:43.238Z,12.73
2018-12-02T12:34:51.901Z,12.75
2018-12-02T12:36:00.583Z,12.73
2018-12-02T12:37:09.252Z,12.76
2018-12-02T12:38:17.963Z,12.83
2018-12-02T12:39:26.893Z,12.83
2018-12-02T12:40:35.573Z,12.84
2018-12-02T12:41:44.248Z,12.86
2018-12-02T12:42:52.935Z,12.94
2018-12-02T12:44:01.616Z,12.94
2018-12-02T12:45:10.288Z,12.95
2018-12-02T12:46:18.970Z,13.01
2018-12-02T12:47:27.637Z,13.02
2018-12-02T12:48:36.316Z,13.03
2018-12-02T12:49:44.980Z,13.12
2018-12-02T12:50:53.663Z,13.11
2018-12-02T12:52:02.373Z,13.16
2018-12-02T12:53:11.056Z,13.17
2018-12-02T12:54:19.722Z,13.16
2018-12-02T12:55:29.029Z,13.16
2018-12-02T12:56:37.777Z,13.19
2018-12-02T12:57:46.462Z,13.16
2018-12-02T12:58:55.130Z,13.27
2018-12-02T13:00:03.798Z,13.23
2018-12-02T13:01:12.475Z,13.31
2018-12-02T13:02:21.152Z,13.33
2018-12-02T13:03:29.843Z,13.37
2018-12-02T13:04:38.778Z,13.37
2018-12-02T13:05:47.468Z,13.39
2018-12-02T13:06:56.634Z,13.4
2018-12-02T13:08:05.312Z,13.39
2018-12-02T13:09:14.029Z,13.46
2018-12-02T13:10:22.715Z,13.37
2018-12-02T13:11:31.388Z,13.45
2018-12-02T13:12:40.069Z,13.39
2018-12-02T13:13:48.747Z,13.47
2018-12-02T13:14:57.425Z,13.5
2018-12-02T13:16:06.116Z,13.55
2018-12-02T13:17:15.040Z,13.47
2018-12-02T13:18:23.713Z,13.49
2018-12-02T13:19:32.395Z,13.55
2018-12-02T13:20:41.076Z,13.54
2018-12-02T13:21:49.749Z,13.55
2018-12-02T13:22:58.422Z,13.57
2018-12-02T13:24:07.097Z,13.62
2018-12-02T13:25:15.775Z,13.62
2018-12-02T13:26:24.454Z,13.62
2018-12-02T13:27:33.134Z,13.73
2018-12-02T13:28:41.815Z,13.73
2018-12-02T13:29:50.771Z,13.7
2018-12-02T13:30:59.696Z,13.67
2018-12-02T13:32:08.376Z,13.76
2018-12-02T13:33:17.059Z,13.76
2018-12-02T13:34:26.002Z,13.76
2018-12-02T13:35:34.930Z,13.78
2018-12-02T13:36:43.855Z,13.82
2018-12-02T13:37:52.558Z,13.76
2018-12-02T13:39:01.240Z,13.82
2018-12-02T13:40:09.918Z,13.78
2018-12-02T13:41:18.721Z,13.71
2018-12-02T13:42:27.451Z,13.68
2018-12-02T13:43:36.391Z,13.73
2018-12-02T13:44:45.067Z,13.79
2018-12-02T13:45:53.742Z,13.65
2018-12-02T13:47:02.435Z,13.82
2018-12-02T13:48:11.110Z,13.71
2018-12-02T13:49:19.792Z,13.65
2018-12-02T13:50:28.463Z,13.71
2018-12-02T13:51:37.160Z,13.67
2018-12-02T13:52:45.843Z,13.67
2018-12-02T13:53:54.524Z,13.83
2018-12-02T13:55:03.196Z,13.67
2018-12-02T13:56:11.872Z,13.67
2018-12-02T13:57:20.815Z,13.68
2018-12-02T13:58:29.491Z,13.75
2018-12-02T13:59:38.166Z,13.7
2018-12-02T14:00:46.845Z,13.7
2018-12-02T14:01:55.524Z,13.62
2018-12-02T14:03:04.212Z,13.65
2018-12-02T14:04:12.882Z,13.62
2018-12-02T14:05:21.566Z,13.75
2018-12-02T14:06:30.237Z,13.73
2018-12-02T14:07:38.929Z,13.62
2018-12-02T14:08:47.603Z,13.76
2018-12-02T14:09:56.597Z,13.7
2018-12-02T14:11:05.527Z,13.68
2018-12-02T14:12:14.206Z,13.73
2018-12-02T14:13:22.946Z,13.75
2018-12-02T14:14:31.637Z,13.73
2018-12-02T14:15:40.316Z,13.78
2018-12-02T14:16:48.981Z,13.75
2018-12-02T14:17:57.666Z,13.71
2018-12-02T14:19:06.856Z,13.67
2018-12-02T14:20:15.589Z,13.78
2018-12-02T14:21:24.255Z,13.68
2018-12-02T14:22:32.941Z,13.62
2018-12-02T14:23:41.609Z,13.62
2018-12-02T14:24:50.301Z,13.73
2018-12-02T14:25:58.968Z,13.58
2018-12-02T14:27:07.649Z,13.54
2018-12-02T14:28:16.325Z,13.54
2018-12-02T14:29:25.026Z,13.55
2018-12-02T14:30:33.696Z,13.6
2018-12-02T14:31:42.361Z,13.55
2018-12-02T14:32:51.030Z,13.6
2018-12-02T14:33:59.702Z,13.5
2018-12-02T14:35:08.426Z,13.52
2018-12-02T14:36:17.094Z,13.55
2018-12-02T14:37:26.033Z,13.55
2018-12-02T14:38:34.700Z,13.54
2018-12-02T14:39:43.383Z,13.5
2018-12-02T14:40:52.058Z,13.5
2018-12-02T14:42:00.734Z,13.61
2018-12-02T14:43:09.398Z,13.52
2018-12-02T14:44:18.085Z,13.49
2018-12-02T14:45:26.761Z,13.5
2018-12-02T14:46:35.440Z,13.52
2018-12-02T14:47:44.362Z,13.47
2018-12-02T14:48:53.089Z,13.54
2018-12-02T14:50:02.040Z,13.49
2018-12-02T14:51:10.973Z,13.47
2018-12-02T14:52:19.915Z,13.52
2018-12-02T14:53:28.582Z,13.47
2018-12-02T14:54:37.276Z,13.49
2018-12-02T14:55:45.945Z,13.42
2018-12-02T14:56:54.652Z,13.45